createdAt,value
2022-08-10T00:01:39.692Z,14.27
2022-08-10T00:04:07.785Z,8.90
2022-08-10T00:06:35.946Z,10.45
2022-08-10T00:09:05.425Z,16.85
2022-08-10T00:11:33.249Z,10.20
2022-08-10T00:14:02.053Z,11.20
2022-08-10T00:16:29.874Z,8.70
2022-08-10T00:18:57.646Z,11.82
2022-08-10T00:21:27.141Z,13.15
2022-08-10T00:23:55.227Z,7.45
2022-08-10T00:26:24.394Z,10.57
2022-08-10T00:28:52.669Z,10.68
2022-08-10T00:31:20.555Z,8.52
2022-08-10T00:33:48.299Z,8.82
2022-08-10T00:36:16.641Z,12.45
2022-08-10T00:38:44.514Z,10.60
2022-08-10T00:41:12.359Z,9.48
2022-08-10T00:43:41.874Z,9.40
2022-08-10T00:46:09.794Z,8.93
2022-08-10T00:48:37.749Z,9.77
2022-08-10T00:51:06.353Z,7.82
2022-08-10T00:53:34.298Z,9.02
2022-08-10T00:57:09.993Z,8.73
2022-08-10T00:58:51.959Z,9.05
2022-08-10T01:02:09.436Z,9.43
2022-08-10T01:04:57.860Z,11.70
2022-08-10T01:07:14.813Z,16.45
2022-08-10T01:09:56.971Z,11.43
2022-08-10T01:12:38.312Z,7.78
2022-08-10T01:15:20.015Z,13.70
2022-08-10T01:17:54.888Z,10.85
2022-08-10T01:20:31.230Z,6.28
2022-08-10T01:23:39.013Z,9.63
2022-08-10T01:26:31.555Z,12.75
2022-08-10T01:29:18.986Z,7.70
2022-08-10T01:31:54.311Z,9.93
2022-08-10T01:34:26.528Z,8.63
2022-08-10T01:36:59.546Z,10.50
2022-08-10T01:39:31.313Z,8.45
2022-08-10T01:44:33.362Z,13.30
2022-08-10T01:47:24.743Z,9.05
2022-08-10T01:50:03.217Z,14.10
2022-08-10T01:52:33.179Z,14.07
2022-08-10T01:55:01.234Z,16.00
2022-08-10T01:57:32.304Z,7.72
2022-08-10T02:00:03.500Z,8.95
2022-08-10T02:02:36.025Z,7.60
2022-08-10T02:05:06.681Z,8.02
2022-08-10T02:07:37.883Z,11.20
2022-08-10T02:10:12.181Z,13.02
2022-08-10T02:12:41.924Z,6.70
2022-08-10T02:15:15.593Z,8.02
2022-08-10T02:17:59.322Z,9.98
2022-08-10T02:20:34.577Z,10.50
2022-08-10T02:23:08.615Z,9.80
2022-08-10T02:25:41.673Z,12.05
2022-08-10T02:28:30.575Z,12.40
2022-08-10T02:31:04.267Z,10.45
2022-08-10T02:33:38.368Z,8.88
2022-08-10T02:36:09.861Z,11.43
2022-08-10T02:38:57.479Z,12.02
2022-08-10T02:45:13.001Z,13.68
2022-08-10T02:45:26.453Z,10.02
2022-08-10T02:47:22.978Z,11.32
2022-08-10T02:49:58.458Z,9.60
2022-08-10T02:52:36.507Z,9.88
2022-08-10T02:55:18.279Z,15.35
2022-08-10T03:00:43.373Z,9.68
2022-08-10T03:03:16.475Z,16.40
2022-08-10T03:05:48.139Z,11.02
2022-08-10T03:08:20.477Z,9.32
2022-08-10T03:13:20.130Z,11.68
2022-08-10T03:15:49.151Z,12.50
2022-08-10T03:18:19.535Z,10.73
2022-08-10T03:20:50.620Z,9.82
2022-08-10T03:23:20.517Z,8.52
2022-08-10T03:25:53.615Z,9.70
2022-08-10T03:28:24.496Z,7.95
2022-08-10T03:30:53.790Z,13.38
2022-08-10T03:33:23.236Z,7.43
2022-08-10T03:36:42.600Z,6.80
2022-08-10T03:38:41.461Z,8.30
2022-08-10T03:41:16.210Z,8.18
2022-08-10T03:43:47.746Z,12.02
2022-08-10T03:46:19.360Z,8.35
2022-08-10T03:48:51.155Z,10.00
2022-08-10T03:51:22.810Z,10.82
2022-08-10T03:54:04.472Z,14.40
2022-08-10T03:56:40.339Z,10.68
2022-08-10T03:59:15.122Z,9.52
2022-08-10T04:02:46.580Z,9.63
2022-08-10T04:04:32.064Z,11.07
2022-08-10T04:07:03.441Z,12.65
2022-08-10T04:09:55.668Z,10.30
2022-08-10T04:12:21.598Z,10.75
2022-08-10T04:14:52.479Z,9.73
2022-08-10T04:20:18.454Z,12.15
2022-08-10T04:22:50.877Z,9.93
2022-08-10T04:25:20.283Z,16.45
2022-08-10T04:27:49.390Z,10.82
2022-08-10T04:30:17.337Z,11.80
2022-08-10T04:32:48.037Z,11.38
2022-08-10T04:35:19.872Z,11.73
2022-08-10T04:37:50.382Z,18.73
2022-08-10T04:40:28.638Z,10.52
2022-08-10T04:43:09.071Z,12.52
2022-08-10T04:45:49.471Z,8.82
2022-08-10T04:48:40.577Z,10.52
2022-08-10T04:51:17.303Z,10.25
2022-08-10T04:54:02.797Z,7.78
2022-08-10T04:56:35.382Z,7.75
2022-08-10T04:59:03.588Z,9.63
2022-08-10T05:02:22.059Z,13.57
2022-08-10T05:04:37.948Z,13.45
2022-08-10T05:07:08.589Z,17.40
2022-08-10T05:10:00.986Z,12.85
2022-08-10T05:12:27.712Z,11.70
2022-08-10T05:14:56.329Z,11.23
2022-08-10T05:17:25.306Z,14.48
2022-08-10T05:20:02.137Z,12.05
2022-08-10T05:22:34.548Z,13.75
2022-08-10T05:25:04.159Z,7.60
2022-08-10T05:27:31.918Z,9.93
2022-08-10T05:30:01.197Z,8.20
2022-08-10T05:32:31.077Z,8.52
2022-08-10T05:34:59.116Z,7.80
2022-08-10T05:38:09.148Z,12.82
2022-08-10T05:40:19.933Z,10.77
2022-08-10T05:42:48.469Z,8.35
2022-08-10T05:45:22.174Z,13.48
2022-08-10T05:48:42.183Z,10.77
2022-08-10T05:50:38.319Z,6.78
2022-08-10T05:54:01.309Z,10.98
2022-08-10T05:55:56.360Z,10.82
2022-08-10T05:58:24.482Z,9.63
2022-08-10T06:00:55.268Z,14.77
2022-08-10T06:03:28.666Z,9.65
2022-08-10T06:05:59.773Z,27.15
2022-08-10T06:08:31.657Z,16.23
2022-08-10T06:12:26.869Z,10.80
2022-08-10T06:16:45.071Z,12.95
2022-08-10T06:19:15.065Z,13.73
2022-08-10T06:21:55.311Z,16.58
2022-08-10T06:24:31.183Z,13.32
2022-08-10T06:27:00.913Z,9.90
2022-08-10T06:29:33.086Z,8.27
2022-08-10T06:32:02.763Z,12.27
2022-08-10T06:34:33.673Z,9.80
2022-08-10T06:37:04.438Z,13.02
2022-08-10T06:39:34.988Z,10.60
2022-08-10T06:42:16.416Z,11.00
2022-08-10T06:44:53.436Z,10.05
2022-08-10T06:47:24.426Z,10.80
2022-08-10T06:49:59.890Z,10.95
2022-08-10T06:52:29.827Z,16.50
2022-08-10T06:55:00.382Z,14.10
2022-08-10T06:57:34.227Z,8.38
2022-08-10T07:00:08.069Z,18.50
2022-08-10T07:02:42.634Z,10.55
2022-08-10T07:05:16.059Z,6.63
2022-08-10T07:07:45.279Z,9.90
2022-08-10T07:10:17.266Z,7.95
2022-08-10T07:12:47.744Z,10.23
2022-08-10T07:15:17.309Z,8.30
2022-08-10T07:17:47.193Z,8.60
2022-08-10T07:20:17.942Z,6.32
2022-08-10T07:23:54.743Z,8.40
2022-08-10T07:25:38.449Z,10.43
2022-08-10T07:28:09.293Z,7.53
2022-08-10T07:30:39.080Z,10.98
2022-08-10T07:33:08.513Z,6.85
2022-08-10T07:35:42.595Z,10.80
2022-08-10T07:38:18.765Z,11.75
2022-08-10T07:40:50.450Z,10.73
2022-08-10T07:43:22.910Z,10.63
2022-08-10T07:45:51.353Z,7.82
2022-08-10T07:48:23.930Z,8.65
2022-08-10T07:50:55.115Z,12.75
2022-08-10T07:53:27.406Z,13.20
2022-08-10T07:56:05.099Z,8.98
2022-08-10T07:58:52.493Z,12.73
2022-08-10T08:04:06.037Z,8.68
2022-08-10T08:06:39.084Z,7.50
2022-08-10T08:09:07.470Z,17.17
2022-08-10T08:11:37.421Z,16.23
2022-08-10T08:14:08.541Z,19.55
2022-08-10T08:16:40.000Z,15.32
2022-08-10T08:24:10.407Z,7.90
2022-08-10T08:24:45.827Z,9.45
2022-08-10T08:27:16.742Z,7.70
2022-08-10T08:29:48.050Z,6.72
2022-08-10T08:34:47.379Z,14.18
2022-08-10T08:37:18.838Z,7.75
2022-08-10T08:40:11.594Z,8.77
2022-08-10T08:43:06.532Z,12.73
2022-08-10T08:46:01.563Z,6.40
2022-08-10T08:48:46.662Z,10.55
2022-08-10T08:52:17.072Z,7.78
2022-08-10T08:54:23.780Z,7.03
2022-08-10T08:57:03.858Z,8.23
2022-08-10T08:59:52.063Z,8.90
2022-08-10T09:02:40.364Z,7.60
2022-08-10T09:05:27.798Z,7.45
2022-08-10T09:08:41.482Z,7.55
2022-08-10T09:11:24.928Z,8.50
2022-08-10T09:14:01.329Z,8.10
2022-08-10T09:16:36.264Z,7.93
2022-08-10T09:19:35.006Z,7.60
2022-08-10T09:22:17.331Z,10.65
2022-08-10T09:24:53.816Z,14.10
2022-08-10T09:27:23.875Z,6.50
2022-08-10T09:29:55.786Z,6.90
2022-08-10T09:36:13.789Z,5.15
2022-08-10T09:36:24.755Z,12.45
2022-08-10T09:38:25.546Z,6.55
2022-08-10T09:41:04.190Z,4.38
2022-08-10T09:43:48.987Z,7.10
2022-08-10T09:46:29.042Z,7.57
2022-08-10T09:49:06.715Z,8.68
2022-08-10T09:51:48.078Z,7.07
2022-08-10T09:54:30.965Z,5.15
2022-08-10T09:57:44.166Z,3.42
2022-08-10T10:00:09.090Z,4.15
2022-08-10T10:02:47.200Z,5.97
2022-08-10T10:05:31.854Z,7.60
2022-08-10T10:08:08.642Z,11.32
2022-08-10T10:10:46.643Z,5.80
2022-08-10T10:13:41.528Z,5.95
2022-08-10T10:16:23.222Z,6.45
2022-08-10T10:19:02.650Z,4.82
2022-08-10T10:21:55.567Z,3.58
2022-08-10T10:24:36.795Z,4.90
2022-08-10T10:27:19.810Z,4.78
2022-08-10T10:29:56.972Z,6.75
2022-08-10T10:32:37.624Z,4.40
2022-08-10T10:35:16.044Z,5.10
2022-08-10T10:38:01.755Z,4.20
2022-08-10T10:40:44.866Z,2.92
2022-08-10T10:43:27.096Z,5.82
2022-08-10T10:46:04.455Z,3.67
2022-08-10T10:48:41.209Z,3.03
2022-08-10T10:51:17.619Z,4.57
2022-08-10T10:53:53.591Z,4.68
2022-08-10T10:56:32.098Z,3.30
2022-08-10T10:59:53.995Z,13.45
2022-08-10T11:02:07.457Z,2.70
2022-08-10T11:04:41.613Z,3.50
2022-08-10T11:07:21.930Z,5.55
2022-08-10T11:10:05.480Z,3.58
2022-08-10T11:12:54.102Z,5.13
2022-08-10T11:15:28.020Z,3.55
2022-08-10T11:18:02.477Z,4.40
2022-08-10T11:20:39.866Z,4.60
2022-08-10T11:23:21.213Z,10.95
2022-08-10T11:25:59.673Z,5.07
2022-08-10T11:28:36.883Z,5.00
2022-08-10T11:31:10.751Z,3.78
2022-08-10T11:34:11.218Z,3.25
2022-08-10T11:36:42.829Z,5.78
2022-08-10T11:39:17.237Z,3.45
2022-08-10T11:42:11.594Z,8.13
2022-08-10T11:44:49.296Z,2.08
2022-08-10T11:47:21.128Z,4.80
2022-08-10T11:49:54.637Z,4.22
2022-08-10T11:52:32.596Z,3.75
2022-08-10T11:55:10.840Z,7.35
2022-08-10T11:57:54.900Z,3.20
2022-08-10T12:00:34.904Z,7.53
2022-08-10T12:03:07.007Z,2.45
2022-08-10T12:05:53.792Z,3.33
2022-08-10T12:10:03.548Z,4.15
2022-08-10T12:11:24.579Z,3.78
2022-08-10T12:14:19.706Z,1.90
2022-08-10T12:16:52.355Z,3.45
2022-08-10T12:19:28.521Z,4.63
2022-08-10T12:22:05.803Z,4.63
2022-08-10T12:24:38.922Z,1.65
2022-08-10T12:27:13.233Z,6.20
2022-08-10T12:29:47.265Z,2.47
2022-08-10T12:32:25.895Z,5.07
2022-08-10T12:35:04.433Z,2.33
2022-08-10T12:37:39.562Z,2.58
2022-08-10T12:43:15.256Z,6.53
2022-08-10T12:46:06.939Z,6.85
2022-08-10T12:48:42.909Z,4.00
2022-08-10T12:51:15.764Z,5.57
2022-08-10T12:53:51.144Z,4.88
2022-08-10T12:56:25.421Z,2.95
2022-08-10T12:58:58.910Z,2.72
2022-08-10T13:02:10.119Z,5.22
2022-08-10T13:04:30.636Z,3.80
2022-08-10T13:07:01.155Z,2.80
2022-08-10T13:09:29.148Z,3.80
2022-08-10T13:12:38.989Z,4.18
2022-08-10T13:14:54.561Z,6.75
2022-08-10T13:17:32.285Z,2.13
2022-08-10T13:20:15.927Z,4.45
2022-08-10T13:22:47.826Z,6.05
2022-08-10T13:25:21.172Z,4.18
2022-08-10T13:28:01.273Z,5.45
2022-08-10T13:30:41.643Z,6.20
2022-08-10T13:33:12.040Z,4.35
2022-08-10T13:35:45.090Z,4.65
2022-08-10T13:38:16.214Z,3.17
2022-08-10T13:43:18.256Z,3.78
2022-08-10T13:45:50.093Z,14.27
2022-08-10T13:48:21.775Z,3.05
2022-08-10T13:50:53.303Z,3.47
2022-08-10T13:53:23.009Z,9.32
2022-08-10T13:55:56.474Z,5.28
2022-08-10T13:58:27.899Z,3.42
2022-08-10T14:03:26.761Z,3.35
2022-08-10T14:05:58.518Z,4.97
2022-08-10T14:08:30.185Z,3.60
2022-08-10T14:13:43.661Z,6.40
2022-08-10T14:16:12.833Z,8.13
2022-08-10T14:18:44.872Z,3.53
2022-08-10T14:21:14.763Z,4.65
2022-08-10T14:23:53.112Z,3.47
2022-08-10T14:26:24.724Z,5.13
2022-08-10T14:28:56.354Z,4.90
2022-08-10T14:31:29.984Z,3.90
2022-08-10T14:34:00.257Z,3.35
2022-08-10T14:36:37.816Z,3.45
2022-08-10T14:39:07.072Z,3.22
2022-08-10T14:42:03.261Z,5.07
2022-08-10T14:44:28.504Z,1.50
2022-08-10T14:46:59.421Z,3.30
2022-08-10T14:52:26.873Z,6.32
2022-08-10T14:54:57.987Z,4.68
2022-08-10T14:58:17.251Z,5.43
2022-08-10T15:00:37.873Z,3.25
2022-08-10T15:03:49.404Z,1.80
2022-08-10T15:05:59.049Z,2.70
2022-08-10T15:08:37.025Z,2.30
2022-08-10T15:11:06.063Z,2.58
2022-08-10T15:13:35.496Z,5.68
2022-08-10T15:16:13.864Z,3.20
2022-08-10T15:18:57.988Z,1.92
2022-08-10T15:21:42.916Z,2.10
2022-08-10T15:24:39.795Z,4.53
2022-08-10T15:27:10.485Z,6.07
2022-08-10T15:29:57.044Z,2.60
2022-08-10T15:32:52.278Z,2.35
2022-08-10T15:35:41.999Z,7.13
2022-08-10T15:38:11.354Z,5.68
2022-08-10T15:40:52.601Z,3.50
2022-08-10T15:43:26.694Z,2.30
2022-08-10T15:46:01.726Z,4.53
2022-08-10T15:48:33.477Z,2.65
2022-08-10T15:51:05.694Z,2.58
2022-08-10T15:53:49.210Z,3.58
2022-08-10T15:56:28.159Z,5.57
2022-08-10T15:59:08.265Z,8.23
2022-08-10T16:02:13.291Z,5.97
2022-08-10T16:04:37.230Z,3.05
2022-08-10T16:07:09.848Z,4.78
2022-08-10T16:10:24.331Z,4.30
2022-08-10T16:12:37.769Z,2.95
2022-08-10T16:15:10.603Z,3.60
2022-08-10T16:17:55.440Z,2.28
2022-08-10T16:20:31.097Z,3.55
2022-08-10T16:23:03.684Z,5.30
2022-08-10T16:25:48.393Z,3.05
2022-08-10T16:28:29.422Z,4.10
2022-08-10T16:31:00.034Z,5.53
2022-08-10T16:33:53.644Z,2.60
2022-08-10T16:36:22.453Z,2.67
2022-08-10T16:38:53.298Z,6.75
2022-08-10T16:42:00.547Z,5.40
2022-08-10T16:44:17.930Z,3.72
2022-08-10T16:46:47.438Z,4.47
2022-08-10T16:49:19.024Z,3.28
2022-08-10T16:51:49.060Z,2.38
2022-08-10T16:54:26.343Z,5.88
2022-08-10T16:57:01.735Z,3.65
2022-08-10T16:59:34.991Z,2.55
2022-08-10T17:02:04.121Z,4.32
2022-08-10T17:04:34.829Z,3.40
2022-08-10T17:07:07.229Z,2.38
2022-08-10T17:09:38.450Z,4.97
2022-08-10T17:12:10.717Z,4.15
2022-08-10T17:14:42.408Z,4.55
2022-08-10T17:17:15.026Z,7.25
2022-08-10T17:19:45.882Z,1.63
2022-08-10T17:22:15.838Z,5.60
2022-08-10T17:24:47.349Z,4.15
2022-08-10T17:28:05.072Z,3.10
2022-08-10T17:30:15.675Z,4.50
2022-08-10T17:32:50.559Z,2.63
2022-08-10T17:35:23.914Z,2.63
2022-08-10T17:37:57.429Z,3.25
2022-08-10T17:40:28.443Z,4.45
2022-08-10T17:42:58.065Z,3.90
2022-08-10T17:45:46.693Z,10.15
2022-08-10T17:48:19.020Z,5.97
2022-08-10T17:50:50.640Z,4.32
2022-08-10T17:53:23.357Z,5.85
2022-08-10T17:55:56.581Z,5.32
2022-08-10T17:58:27.594Z,8.70
2022-08-10T18:01:40.783Z,5.07
2022-08-10T18:03:53.061Z,5.32
2022-08-10T18:06:22.789Z,4.00
2022-08-10T18:08:57.788Z,2.35
2022-08-10T18:11:29.546Z,3.33
2022-08-10T18:14:01.622Z,5.57
2022-08-10T18:19:08.752Z,10.63
2022-08-10T18:21:41.441Z,4.00
2022-08-10T18:24:16.300Z,5.43
2022-08-10T18:26:46.770Z,8.00
2022-08-10T18:29:18.896Z,3.78
2022-08-10T18:31:55.112Z,4.70
2022-08-10T18:34:25.491Z,4.18
2022-08-10T18:36:54.966Z,4.60
2022-08-10T18:39:26.926Z,8.93
2022-08-10T18:42:05.524Z,7.00
2022-08-10T18:44:37.023Z,10.40
2022-08-10T18:47:13.187Z,9.30
2022-08-10T18:49:54.679Z,11.85
2022-08-10T18:52:27.045Z,33.88
2022-08-10T18:55:04.870Z,33.72
2022-08-10T18:57:59.146Z,21.40
2022-08-10T19:00:34.308Z,26.13
2022-08-10T19:03:32.558Z,23.75
2022-08-10T19:06:17.827Z,21.15
2022-08-10T19:08:57.068Z,23.83
2022-08-10T19:11:38.302Z,18.60
2022-08-10T19:14:14.729Z,28.20
2022-08-10T19:16:50.244Z,27.98
2022-08-10T19:19:34.113Z,24.08
2022-08-10T19:22:05.830Z,62.90
2022-08-10T19:24:49.091Z,36.15
2022-08-10T19:27:40.126Z,23.50
2022-08-10T19:30:13.376Z,13.60
2022-08-10T19:32:55.898Z,19.73
2022-08-10T19:38:33.186Z,11.57
2022-08-10T19:41:10.348Z,12.60
2022-08-10T19:44:00.251Z,9.38
2022-08-10T19:46:40.140Z,8.55
2022-08-10T19:49:18.474Z,10.93
2022-08-10T19:51:56.450Z,7.10
2022-08-10T19:54:31.992Z,11.02
2022-08-10T19:57:08.512Z,8.02
2022-08-10T20:00:16.346Z,5.50
2022-08-10T20:02:48.097Z,3.47
2022-08-10T20:05:26.959Z,3.90
2022-08-10T20:08:03.548Z,5.13
2022-08-10T20:10:38.449Z,5.47
2022-08-10T20:13:26.709Z,6.18
2022-08-10T20:15:59.062Z,7.55
2022-08-10T20:18:31.706Z,5.78
2022-08-10T20:21:04.391Z,5.88
2022-08-10T20:23:36.917Z,5.68
2022-08-10T20:28:43.326Z,4.57
2022-08-10T20:31:17.596Z,6.30
2022-08-10T20:34:00.902Z,12.18
2022-08-10T20:36:33.182Z,6.45
2022-08-10T20:39:17.557Z,12.25
2022-08-10T20:42:01.101Z,5.20
2022-08-10T20:44:41.947Z,5.47
2022-08-10T20:47:14.624Z,7.75
2022-08-10T20:49:51.624Z,7.60
2022-08-10T20:52:21.731Z,4.80
2022-08-10T20:54:55.058Z,5.72
2022-08-10T20:58:04.740Z,5.50
2022-08-10T21:00:25.689Z,3.90
2022-08-10T21:03:33.819Z,6.13
2022-08-10T21:06:35.991Z,5.78
2022-08-10T21:09:22.170Z,6.30
2022-08-10T21:12:16.352Z,8.35
2022-08-10T21:14:54.428Z,9.32
2022-08-10T21:17:44.534Z,4.93
2022-08-10T21:20:30.770Z,6.07
2022-08-10T21:23:05.178Z,5.50
2022-08-10T21:25:43.372Z,10.13
2022-08-10T21:28:31.218Z,4.18
2022-08-10T21:34:12.579Z,10.60
2022-08-10T21:36:47.531Z,4.45
2022-08-10T21:39:21.894Z,8.65
2022-08-10T21:42:37.707Z,11.50
2022-08-10T21:45:58.113Z,5.45
2022-08-10T21:48:57.171Z,4.82
2022-08-10T21:52:04.097Z,4.15
2022-08-10T21:54:58.814Z,6.72
2022-08-10T21:57:48.953Z,4.22
2022-08-10T22:00:36.532Z,8.73
2022-08-10T22:03:24.281Z,4.53
2022-08-10T22:06:12.917Z,7.82
2022-08-10T22:31:28.639Z,7.65
2022-08-10T23:11:17.395Z,4.47
2022-08-10T23:13:48.254Z,5.30
2022-08-10T23:16:37.854Z,7.72
2022-08-10T23:19:09.874Z,8.10
2022-08-10T23:22:04.120Z,4.22
2022-08-10T23:24:37.475Z,6.63
2022-08-10T23:27:12.406Z,5.05
2022-08-10T23:30:10.880Z,5.60
2022-08-10T23:32:37.245Z,5.85
2022-08-10T23:36:31.774Z,6.22
2022-08-10T23:38:00.394Z,8.27
2022-08-10T23:40:29.382Z,6.85
2022-08-10T23:42:58.605Z,5.68
2022-08-10T23:45:52.749Z,6.75
2022-08-10T23:48:21.161Z,9.40
2022-08-10T23:50:53.385Z,4.28
2022-08-10T23:53:31.105Z,6.32
2022-08-10T23:56:01.925Z,7.32
2022-08-10T23:58:38.686Z,5.00
